createdAt,value
2022-08-20T00:01:06.106Z,1.5
2022-08-20T00:07:06.110Z,1.4
2022-08-20T00:13:06.102Z,1.2
2022-08-20T00:19:06.108Z,1.5
2022-08-20T00:25:06.137Z,1.5
2022-08-20T00:31:06.125Z,1.7
2022-08-20T00:37:06.136Z,1.7
2022-08-20T00:43:06.152Z,1
2022-08-20T00:49:06.131Z,1
2022-08-20T00:55:06.134Z,1
2022-08-20T01:01:06.142Z,0.7
2022-08-20T01:07:06.138Z,0.3
2022-08-20T01:13:06.144Z,0
2022-08-20T01:19:06.128Z,0
2022-08-20T01:25:06.147Z,0
2022-08-20T01:31:06.139Z,0
2022-08-20T01:37:06.172Z,0
2022-08-20T01:43:06.162Z,0
2022-08-20T01:49:06.154Z,0
2022-08-20T01:55:06.153Z,0
2022-08-20T02:01:06.241Z,0
2022-08-20T02:07:06.178Z,0
2022-08-20T02:13:06.141Z,0
2022-08-20T02:19:06.145Z,0
2022-08-20T02:25:06.143Z,0
2022-08-20T02:31:06.161Z,0
2022-08-20T02:37:06.150Z,0
2022-08-20T02:43:06.144Z,0
2022-08-20T02:49:06.159Z,0
2022-08-20T02:55:06.191Z,0
2022-08-20T03:01:06.281Z,0
2022-08-20T03:07:06.167Z,0
2022-08-20T03:13:06.175Z,0
2022-08-20T03:19:06.154Z,0
2022-08-20T03:25:06.169Z,0
2022-08-20T03:31:06.151Z,0
2022-08-20T03:37:06.154Z,0
2022-08-20T03:43:06.186Z,0
2022-08-20T03:49:06.197Z,0
2022-08-20T03:55:06.179Z,0
2022-08-20T04:01:06.258Z,0
2022-08-20T04:07:06.155Z,0
2022-08-20T04:13:06.173Z,0
2022-08-20T04:19:06.155Z,0
2022-08-20T04:25:06.164Z,0
2022-08-20T04:31:06.201Z,0
2022-08-20T04:37:06.190Z,0
2022-08-20T04:43:06.188Z,0
2022-08-20T04:49:06.236Z,0
2022-08-20T04:55:06.194Z,0
2022-08-20T05:01:06.231Z,0
2022-08-20T05:07:06.178Z,0
2022-08-20T05:13:06.188Z,0
2022-08-20T05:19:06.212Z,0
2022-08-20T05:25:06.240Z,0
2022-08-20T05:31:06.291Z,0
2022-08-20T05:37:06.209Z,0
2022-08-20T05:43:06.209Z,0
2022-08-20T05:49:06.270Z,0
2022-08-20T05:55:06.206Z,0
2022-08-20T06:01:06.302Z,0
2022-08-20T06:07:06.205Z,0
2022-08-20T06:13:06.198Z,0
2022-08-20T06:19:06.182Z,0
2022-08-20T06:25:06.222Z,0
2022-08-20T06:31:06.182Z,0
2022-08-20T06:37:06.198Z,0
2022-08-20T06:43:06.195Z,0
2022-08-20T06:49:06.224Z,0
2022-08-20T06:55:06.229Z,0
2022-08-20T07:01:09.741Z,0
2022-08-20T07:07:06.224Z,0
2022-08-20T07:13:06.212Z,0
2022-08-20T07:19:06.221Z,0
2022-08-20T07:25:06.203Z,0
2022-08-20T07:31:13.448Z,0
2022-08-20T07:37:06.231Z,0
2022-08-20T07:43:06.233Z,0
2022-08-20T07:49:06.227Z,0
2022-08-20T07:55:06.239Z,0.2
2022-08-20T08:01:06.333Z,0.5
2022-08-20T08:07:06.219Z,0.7
2022-08-20T08:13:06.231Z,0.7
2022-08-20T08:19:06.214Z,1
2022-08-20T08:25:06.226Z,2.7
2022-08-20T08:31:06.229Z,3
2022-08-20T08:37:06.206Z,4.3
2022-08-20T08:43:06.234Z,4.6
2022-08-20T08:49:06.233Z,3.3
2022-08-20T08:55:06.218Z,3.4
2022-08-20T09:01:09.685Z,9.6
2022-08-20T09:07:06.219Z,8
2022-08-20T09:13:06.246Z,8.4
2022-08-20T09:19:06.252Z,6.3
2022-08-20T09:25:08.928Z,5.9
2022-08-20T09:31:06.495Z,4.7
2022-08-20T09:37:06.241Z,6.1
2022-08-20T09:43:06.260Z,7.2
2022-08-20T09:49:06.260Z,6.2
2022-08-20T09:55:06.262Z,8.6
2022-08-20T10:01:06.282Z,6.7
2022-08-20T10:07:06.261Z,10.1
2022-08-20T10:13:06.283Z,11.8
2022-08-20T10:19:06.273Z,12.2
2022-08-20T10:25:08.740Z,8.4
2022-08-20T10:31:06.276Z,7.5
2022-08-20T10:37:06.277Z,11.4
2022-08-20T10:43:06.273Z,13.4
2022-08-20T10:49:06.265Z,14.8
2022-08-20T10:55:06.302Z,10.3
2022-08-20T11:01:06.287Z,9.1
2022-08-20T11:07:06.279Z,8.9
2022-08-20T11:13:06.282Z,10.8
2022-08-20T11:19:06.289Z,9.4
2022-08-20T11:25:06.284Z,8.9
2022-08-20T11:31:06.304Z,9.2
2022-08-20T11:37:06.282Z,9.8
2022-08-20T11:43:15.137Z,9.8
2022-08-20T11:49:06.343Z,10.3
2022-08-20T11:55:06.312Z,11.6
2022-08-20T12:01:06.339Z,11.3
2022-08-20T12:07:06.282Z,11.7
2022-08-20T12:13:06.285Z,10.2
2022-08-20T12:19:06.525Z,10.7
2022-08-20T12:25:06.295Z,10.3
2022-08-20T12:31:06.310Z,10.3
2022-08-20T12:37:06.317Z,11
2022-08-20T12:43:06.279Z,10.8
2022-08-20T12:49:06.300Z,9.2
2022-08-20T12:55:06.298Z,10.1
2022-08-20T13:01:06.325Z,9.4
2022-08-20T13:07:06.311Z,10.4
2022-08-20T13:13:06.318Z,9.5
2022-08-20T13:19:06.325Z,8.9
2022-08-20T13:25:06.335Z,8.4
2022-08-20T13:31:06.338Z,8.3
2022-08-20T13:37:06.296Z,9
2022-08-20T13:43:07.577Z,9
2022-08-20T13:49:06.317Z,9.7
2022-08-20T13:55:06.408Z,11
2022-08-20T14:01:06.404Z,11.6
2022-08-20T14:07:06.329Z,10.7
2022-08-20T14:13:06.308Z,10.5
2022-08-20T14:19:06.344Z,10
2022-08-20T14:25:06.400Z,10
2022-08-20T14:31:06.328Z,9.6
2022-08-20T14:37:06.397Z,8.9
2022-08-20T14:43:06.341Z,9
2022-08-20T14:49:06.346Z,10.2
2022-08-20T14:55:06.355Z,10.2
2022-08-20T15:01:06.434Z,10.1
2022-08-20T15:07:08.126Z,10.3
2022-08-20T15:13:06.332Z,11.1
2022-08-20T15:19:06.352Z,11.3
2022-08-20T15:25:06.361Z,11.7
2022-08-20T15:31:06.362Z,11.4
2022-08-20T15:37:06.366Z,12
2022-08-20T15:43:06.373Z,12.4
2022-08-20T15:49:06.358Z,12.6
2022-08-20T15:55:06.356Z,12.4
2022-08-20T16:01:24.519Z,12.3
2022-08-20T16:07:06.347Z,12.2
2022-08-20T16:13:06.339Z,12.1
2022-08-20T16:19:06.374Z,11.7
2022-08-20T16:25:06.369Z,11.9
2022-08-20T16:31:06.366Z,12.1
2022-08-20T16:37:06.357Z,12.8
2022-08-20T16:43:06.384Z,13.1
2022-08-20T16:49:06.375Z,13.1
2022-08-20T16:55:06.376Z,13.1
2022-08-20T17:01:06.420Z,13.5
2022-08-20T17:07:08.033Z,13.1
2022-08-20T17:13:06.387Z,13.4
2022-08-20T17:19:06.379Z,13.3
2022-08-20T17:25:06.389Z,13.7
2022-08-20T17:31:06.381Z,13.3
2022-08-20T17:37:06.377Z,13.6
2022-08-20T17:43:06.384Z,13.5
2022-08-20T17:49:06.467Z,13.6
2022-08-20T17:55:06.388Z,13.5
2022-08-20T18:01:08.178Z,13.3
2022-08-20T18:07:06.393Z,13.1
2022-08-20T18:13:06.398Z,12.8
2022-08-20T18:19:06.414Z,12.7
2022-08-20T18:25:06.419Z,12.5
2022-08-20T18:31:06.396Z,12.2
2022-08-20T18:37:06.413Z,12
2022-08-20T18:43:06.406Z,11.7
2022-08-20T18:49:06.411Z,11.8
2022-08-20T18:55:06.410Z,11.6
2022-08-20T19:01:06.453Z,11.2
2022-08-20T19:07:06.392Z,11.2
2022-08-20T19:13:06.478Z,11.2
2022-08-20T19:19:06.454Z,11
2022-08-20T19:25:06.415Z,11
2022-08-20T19:31:06.427Z,10.6
2022-08-20T19:37:10.008Z,10.4
2022-08-20T19:43:06.426Z,10.4
2022-08-20T19:49:06.435Z,10
2022-08-20T19:55:06.413Z,10
2022-08-20T20:01:06.449Z,10.1
2022-08-20T20:07:06.412Z,10.2
2022-08-20T20:13:06.414Z,10.2
2022-08-20T20:19:25.961Z,9.9
2022-08-20T20:25:06.443Z,9.9
2022-08-20T20:31:06.435Z,9.7
2022-08-20T20:37:06.433Z,9.7
2022-08-20T20:43:06.428Z,9.5
2022-08-20T20:49:06.429Z,9.4
2022-08-20T20:55:06.424Z,9.3
2022-08-20T21:01:06.488Z,8.7
2022-08-20T21:07:06.430Z,8.6
2022-08-20T21:13:06.446Z,8.3
2022-08-20T21:19:06.463Z,8.4
2022-08-20T21:25:06.467Z,8.5
2022-08-20T21:31:06.497Z,8.4
2022-08-20T21:37:06.447Z,8.4
2022-08-20T21:43:06.484Z,8.8
2022-08-20T21:49:06.436Z,8.6
2022-08-20T21:55:06.494Z,8.7
2022-08-20T22:01:06.479Z,8.2
2022-08-20T22:07:06.577Z,8.4
2022-08-20T22:13:06.440Z,8.2
2022-08-20T22:19:06.462Z,7.8
2022-08-20T22:25:06.437Z,7.1
2022-08-20T22:31:06.442Z,6.7
2022-08-20T22:37:06.476Z,6.9
2022-08-20T22:43:06.438Z,7.2
2022-08-20T22:49:06.450Z,6.9
2022-08-20T22:55:06.456Z,7
2022-08-20T23:01:06.473Z,7.2
2022-08-20T23:07:06.476Z,7.1
2022-08-20T23:13:06.490Z,7.1
2022-08-20T23:19:06.444Z,7
2022-08-20T23:25:06.464Z,6.8
2022-08-20T23:31:06.477Z,6.7
2022-08-20T23:37:06.476Z,6.4
2022-08-20T23:43:06.499Z,6.3
2022-08-20T23:49:06.465Z,6
2022-08-20T23:55:06.458Z,5.8
